createdAt,value
2019-05-10T06:32:09.294Z,10.60
2019-05-10T06:42:14.657Z,11.00
2019-05-10T06:52:21.783Z,11.20
2019-05-10T07:02:32.155Z,11.40
2019-05-10T07:12:34.176Z,11.60
2019-05-10T07:22:39.571Z,11.90
2019-05-10T07:32:44.984Z,12.10
2019-05-10T07:42:50.373Z,12.00
2019-05-10T07:52:55.746Z,12.20
2019-05-10T08:03:12.381Z,12.40
2019-05-10T08:13:08.520Z,12.80
2019-05-10T08:23:17.958Z,13.20
2019-05-10T16:08:03.007Z,17.20
2019-05-10T16:18:08.403Z,17.10
2019-05-10T16:28:15.515Z,16.80
2019-05-10T16:38:21.491Z,16.40
2019-05-10T16:48:28.438Z,16.30
2019-05-10T16:58:34.257Z,16.70
2019-05-10T17:08:39.626Z,16.30
2019-05-10T17:38:56.147Z,15.70
2019-05-10T17:49:01.594Z,15.30
2019-05-10T17:59:12.033Z,15.20
2019-05-10T18:09:14.030Z,14.90
2019-05-10T18:19:24.557Z,14.50
2019-05-10T18:29:29.327Z,14.20
2019-05-10T18:39:34.715Z,14.10
2019-05-10T18:49:40.092Z,13.90
2019-05-10T18:59:47.038Z,13.60
2019-05-10T19:09:54.314Z,13.30
2019-05-10T19:19:59.761Z,13.00
2019-05-10T21:21:00.801Z,11.90
2019-05-10T21:31:06.231Z,11.60
2019-05-10T21:41:11.602Z,11.60
2019-05-10T21:51:16.980Z,11.70
2019-05-10T22:01:28.874Z,11.70
2019-05-10T22:11:34.217Z,11.90
2019-05-10T22:21:39.583Z,12.00
2019-05-10T22:31:44.965Z,12.00
2019-05-10T22:41:52.972Z,12.00
2019-05-10T22:51:57.455Z,12.00
2019-05-10T23:02:02.910Z,12.10
2019-05-10T23:12:08.392Z,12.00
2019-05-10T23:22:13.755Z,11.70
2019-05-10T23:32:19.658Z,11.70
2019-05-10T23:42:25.015Z,11.60
2019-05-10T23:52:30.395Z,11.40
